Skip Navigation Links
NOAA logo - Click to go to the NOAA homepage
NOAA's National Weather Service
Alaska Aviation Weather Unit
  NWS logo - Click to go to the NWS homepage
Left Navbar Graphic     09 AKDT = 17 GMT

   
NOAA is celebrating 200 years of science, service, and stewardship. Visit the NOAA 200th celebration Web site to learn more.
USA.gov is the U.S. Government's official Web portal to all Federal, state and local government Web resources and services.
Facebook
NWS on Facebook

Important Change Regarding the AAWU Web Presence

 

Over the last several months, the AAWU has been working to navigate its webpages to a nationally supported server. Security, as well as other needs, have necessitated the change.  In the process, we have made an effort to enhance the functionality of our website, as well as some of our products. As of June 20, 2017, aawu.arh.noaa.gov will be discontinued. The new AAWU web address is weather.gov/aawu. It is now live and will run in-parallel with the old site until it is discontinued. Please send any feedback or questions regarding the new webpages to nws.ar.aawu.webauthors@noaa.gov.  Thank you for your patience during this time of transition.
AAWU Home :: Display TAF Add Bookmark
SPECI PAEM 271140Z AUTO 16006KT 10SM -RA BKN008 BKN012 OVC017 03/02
     A2984 RMK AO2 CIG 006V010 P0003=

METAR PAEM 271156Z AUTO 16006KT 10SM -RA OVC008 03/02 A2984 RMK AO2 CIG
     006V011 SLP165 P0003 60013 70020 T00280017 10044 20028
     53004=

SPECI PAEM 271224Z AUTO 16005KT 10SM -RA BKN010 BKN016 OVC021 03/02
     A2985 RMK AO2 P0000=

SPECI PAEM 271235Z AUTO 17007KT 10SM -RA SCT006 BKN010 OVC021 03/02
     A2985 RMK AO2 P0000=

SPECI PAEM 271243Z AUTO 18007KT 10SM -RA BKN006 BKN010 OVC017 03/02
     A2985 RMK AO2 P0000=

METAR PAEM 271256Z AUTO 18005KT 10SM -RA OVC006 03/02 A2985 RMK AO2
     SLP167 P0000 T00280017=

SPECI PAEM 271331Z AUTO 18006KT 10SM -RA SCT006 OVC014 03/02 A2985 RMK
     AO2 P0000=

METAR PAEM 271356Z AUTO 16006KT 10SM -RA OVC014 02/02 A2985 RMK AO2
     SLP169 P0000 T00220017 FZRANO=

SPECI PAEM 271443Z AUTO 19007KT 10SM -RA OVC007 02/02 A2986 RMK AO2 CIG
     006V011 P0000 FZRANO=

METAR PAEM 271456Z AUTO 19006KT 10SM -RA OVC007 02/02 A2986 RMK AO2
 CIG 006V010 SLP170 P0000 60000 T00220017 51005 FZRANO=

METAR PAEM 271556Z AUTO 18007KT 10SM -RA OVC009 03/02 A2986 RMK AO2
     SLP172 P0000 T00280017=

PAEM 271639Z AUTO 18006KT 10SM -RA OVC011 02/01 A2987 RMK AO2
     P0001 FZRANO=

METAR PAEM 271656Z AUTO 19008KT 10SM -RA OVC013 02/01 A2987 RMK AO2
     SLP175 P0001 T00220011 FZRANO=


NOAA's National Weather Service
Alaska Aviation Weather Unit
6930 Sand Lake Road
Anchorage, AK 99502-1845
Disclaimer
Credits
Glossary
Privacy Policy
About Us
Career Opportunities
Contact AAWU Internet Services Site last modified: April, 17th 2012